Clyde Township, Michigan
Current Conditions -  °F | °C
As of 10:37 PM on Saturday 22 Nov 2014 (Local Time) from KPHN Reporting Station
Overcast Overcast  
Wind Chill: 38°   Ceiling: 2000
Heat Index: 43°   Visibility: 7mi
Dew Point: 43°   Wind: 8mph
Humidity: 100%   Direction: 200°SSW
Pressure: 29.94"   Gusts: NA
Location:  43.0355°N, 82.5759°W
Report Text: KPHN 230337Z AUTO 20007KT 7SM OVC020 06/06 A2994 RMK AO2
Loading
Personal Weather Stations






























Interactive Weather Map New forecast layout! Learn more

10-Day Weather Forecast

Advertisements
Track Severe Weather on mobile